sensor_id;sensor_type;location;lat;lon;timestamp;temperature;humidity
40059;SHT31;25763;49.972;8.568;2024-02-26T00:01:22;7.94;69.98
40059;SHT31;25763;49.972;8.568;2024-02-26T00:04:07;7.97;70.00
40059;SHT31;25763;49.972;8.568;2024-02-26T00:06:53;7.93;70.13
40059;SHT31;25763;49.972;8.568;2024-02-26T00:09:40;7.85;70.19
40059;SHT31;25763;49.972;8.568;2024-02-26T00:12:25;7.79;69.78
40059;SHT31;25763;49.972;8.568;2024-02-26T00:15:11;7.85;69.71
40059;SHT31;25763;49.972;8.568;2024-02-26T00:17:56;7.83;69.80
40059;SHT31;25763;49.972;8.568;2024-02-26T00:20:42;7.73;69.82
40059;SHT31;25763;49.972;8.568;2024-02-26T00:23:28;7.69;70.00
40059;SHT31;25763;49.972;8.568;2024-02-26T00:26:14;7.67;70.04
40059;SHT31;25763;49.972;8.568;2024-02-26T00:29:00;7.67;69.80
40059;SHT31;25763;49.972;8.568;2024-02-26T00:31:46;7.69;69.97
40059;SHT31;25763;49.972;8.568;2024-02-26T00:34:32;7.71;69.94
40059;SHT31;25763;49.972;8.568;2024-02-26T00:37:18;7.76;69.99
40059;SHT31;25763;49.972;8.568;2024-02-26T00:40:05;7.75;69.99
40059;SHT31;25763;49.972;8.568;2024-02-26T00:42:50;7.66;69.84
40059;SHT31;25763;49.972;8.568;2024-02-26T00:45:36;7.71;70.10
40059;SHT31;25763;49.972;8.568;2024-02-26T00:48:22;7.79;69.90
40059;SHT31;25763;49.972;8.568;2024-02-26T00:51:07;7.80;69.99
40059;SHT31;25763;49.972;8.568;2024-02-26T00:53:54;7.83;70.36
40059;SHT31;25763;49.972;8.568;2024-02-26T00:56:40;7.85;70.33
40059;SHT31;25763;49.972;8.568;2024-02-26T00:59:26;7.79;69.99
40059;SHT31;25763;49.972;8.568;2024-02-26T01:02:11;7.83;69.80
40059;SHT31;25763;49.972;8.568;2024-02-26T01:04:57;7.80;69.93
40059;SHT31;25763;49.972;8.568;2024-02-26T01:07:43;7.87;70.17
40059;SHT31;25763;49.972;8.568;2024-02-26T01:10:29;7.90;70.58
40059;SHT31;25763;49.972;8.568;2024-02-26T01:13:14;7.86;70.64
40059;SHT31;25763;49.972;8.568;2024-02-26T01:16:00;7.85;70.77
40059;SHT31;25763;49.972;8.568;2024-02-26T01:18:46;7.86;70.39
40059;SHT31;25763;49.972;8.568;2024-02-26T01:21:32;7.76;71.20
40059;SHT31;25763;49.972;8.568;2024-02-26T01:24:18;7.69;71.18
40059;SHT31;25763;49.972;8.568;2024-02-26T01:27:04;7.75;70.83
40059;SHT31;25763;49.972;8.568;2024-02-26T01:29:49;7.65;70.89
40059;SHT31;25763;49.972;8.568;2024-02-26T01:32:35;7.53;71.27
40059;SHT31;25763;49.972;8.568;2024-02-26T01:35:21;7.60;70.68
40059;SHT31;25763;49.972;8.568;2024-02-26T01:38:07;7.65;70.69
40059;SHT31;25763;49.972;8.568;2024-02-26T01:40:52;7.70;70.26
40059;SHT31;25763;49.972;8.568;2024-02-26T01:43:38;7.79;70.66
40059;SHT31;25763;49.972;8.568;2024-02-26T01:46:25;7.82;70.67
40059;SHT31;25763;49.972;8.568;2024-02-26T01:49:12;7.85;70.45
40059;SHT31;25763;49.972;8.568;2024-02-26T01:51:58;7.87;70.35
40059;SHT31;25763;49.972;8.568;2024-02-26T01:54:45;7.85;70.50
40059;SHT31;25763;49.972;8.568;2024-02-26T01:57:31;7.83;70.38
40059;SHT31;25763;49.972;8.568;2024-02-26T02:00:17;7.82;70.27
40059;SHT31;25763;49.972;8.568;2024-02-26T02:03:04;7.80;70.52
40059;SHT31;25763;49.972;8.568;2024-02-26T02:05:50;7.70;70.61
40059;SHT31;25763;49.972;8.568;2024-02-26T02:08:36;7.73;70.34
40059;SHT31;25763;49.972;8.568;2024-02-26T02:11:21;7.80;70.14
40059;SHT31;25763;49.972;8.568;2024-02-26T02:14:07;7.79;70.07
40059;SHT31;25763;49.972;8.568;2024-02-26T02:16:53;7.80;70.19
40059;SHT31;25763;49.972;8.568;2024-02-26T02:19:38;7.86;69.85
40059;SHT31;25763;49.972;8.568;2024-02-26T02:22:24;7.89;69.98
40059;SHT31;25763;49.972;8.568;2024-02-26T02:25:10;7.85;69.83
40059;SHT31;25763;49.972;8.568;2024-02-26T02:27:56;7.89;69.80
40059;SHT31;25763;49.972;8.568;2024-02-26T02:30:42;7.94;70.15
40059;SHT31;25763;49.972;8.568;2024-02-26T02:33:27;7.90;69.78
40059;SHT31;25763;49.972;8.568;2024-02-26T02:36:13;7.94;70.02
40059;SHT31;25763;49.972;8.568;2024-02-26T02:38:59;7.98;70.43
40059;SHT31;25763;49.972;8.568;2024-02-26T02:41:44;8.00;70.77
40059;SHT31;25763;49.972;8.568;2024-02-26T02:44:30;7.90;70.21
40059;SHT31;25763;49.972;8.568;2024-02-26T02:47:16;7.95;70.71
40059;SHT31;25763;49.972;8.568;2024-02-26T02:50:02;7.94;71.17
40059;SHT31;25763;49.972;8.568;2024-02-26T02:52:47;7.85;70.81
40059;SHT31;25763;49.972;8.568;2024-02-26T02:55:35;7.85;70.90
40059;SHT31;25763;49.972;8.568;2024-02-26T02:58:21;7.80;70.64
40059;SHT31;25763;49.972;8.568;2024-02-26T03:01:06;7.86;71.11
40059;SHT31;25763;49.972;8.568;2024-02-26T03:03:52;7.87;71.60
40059;SHT31;25763;49.972;8.568;2024-02-26T03:06:37;7.85;71.86
40059;SHT31;25763;49.972;8.568;2024-02-26T03:09:23;7.69;71.30
40059;SHT31;25763;49.972;8.568;2024-02-26T03:12:09;7.75;71.34
40059;SHT31;25763;49.972;8.568;2024-02-26T03:14:54;7.79;71.81
40059;SHT31;25763;49.972;8.568;2024-02-26T03:17:40;7.79;72.24
40059;SHT31;25763;49.972;8.568;2024-02-26T03:20:26;7.75;71.64
40059;SHT31;25763;49.972;8.568;2024-02-26T03:23:11;7.80;72.04
40059;SHT31;25763;49.972;8.568;2024-02-26T03:26:00;7.82;72.54
40059;SHT31;25763;49.972;8.568;2024-02-26T03:28:46;7.82;72.87
40059;SHT31;25763;49.972;8.568;2024-02-26T03:31:31;7.75;72.73
40059;SHT31;25763;49.972;8.568;2024-02-26T03:34:17;7.70;72.50
40059;SHT31;25763;49.972;8.568;2024-02-26T03:37:05;7.66;72.44
40059;SHT31;25763;49.972;8.568;2024-02-26T03:39:51;7.75;72.83
40059;SHT31;25763;49.972;8.568;2024-02-26T03:42:37;7.77;73.17
40059;SHT31;25763;49.972;8.568;2024-02-26T03:45:22;7.79;73.52
40059;SHT31;25763;49.972;8.568;2024-02-26T03:48:08;7.76;74.19
40059;SHT31;25763;49.972;8.568;2024-02-26T03:50:54;7.77;74.09
40059;SHT31;25763;49.972;8.568;2024-02-26T03:53:39;7.75;74.70
40059;SHT31;25763;49.972;8.568;2024-02-26T03:56:26;7.75;74.90
40059;SHT31;25763;49.972;8.568;2024-02-26T03:59:12;7.75;75.27
40059;SHT31;25763;49.972;8.568;2024-02-26T04:01:57;7.80;75.60
40059;SHT31;25763;49.972;8.568;2024-02-26T04:04:43;7.77;75.94
40059;SHT31;25763;49.972;8.568;2024-02-26T04:07:29;7.79;76.08
40059;SHT31;25763;49.972;8.568;2024-02-26T04:10:14;7.75;76.56
40059;SHT31;25763;49.972;8.568;2024-02-26T04:13:00;7.73;77.03
40059;SHT31;25763;49.972;8.568;2024-02-26T04:15:46;7.69;77.39
40059;SHT31;25763;49.972;8.568;2024-02-26T04:18:33;7.59;78.62
40059;SHT31;25763;49.972;8.568;2024-02-26T04:21:18;7.51;79.11
40059;SHT31;25763;49.972;8.568;2024-02-26T04:24:04;7.51;78.25
40059;SHT31;25763;49.972;8.568;2024-02-26T04:26:50;7.53;78.10
40059;SHT31;25763;49.972;8.568;2024-02-26T04:29:35;7.53;78.01
40059;SHT31;25763;49.972;8.568;2024-02-26T04:32:21;7.35;80.61
40059;SHT31;25763;49.972;8.568;2024-02-26T04:35:07;7.18;81.47
40059;SHT31;25763;49.972;8.568;2024-02-26T04:37:52;7.10;81.91
40059;SHT31;25763;49.972;8.568;2024-02-26T04:40:38;6.89;83.30
40059;SHT31;25763;49.972;8.568;2024-02-26T04:43:24;6.75;83.90
40059;SHT31;25763;49.972;8.568;2024-02-26T04:46:09;6.51;85.05
40059;SHT31;25763;49.972;8.568;2024-02-26T04:48:55;6.40;85.89
40059;SHT31;25763;49.972;8.568;2024-02-26T04:51:41;6.36;86.26
40059;SHT31;25763;49.972;8.568;2024-02-26T04:54:26;6.27;86.27
40059;SHT31;25763;49.972;8.568;2024-02-26T04:57:12;6.36;86.36
40059;SHT31;25763;49.972;8.568;2024-02-26T04:59:58;6.34;86.28
40059;SHT31;25763;49.972;8.568;2024-02-26T05:02:43;6.26;86.38
40059;SHT31;25763;49.972;8.568;2024-02-26T05:05:29;6.15;86.72
40059;SHT31;25763;49.972;8.568;2024-02-26T05:08:14;6.20;86.94
40059;SHT31;25763;49.972;8.568;2024-02-26T05:11:00;6.24;87.06
40059;SHT31;25763;49.972;8.568;2024-02-26T05:13:47;6.16;87.15
40059;SHT31;25763;49.972;8.568;2024-02-26T05:16:33;6.13;87.16
40059;SHT31;25763;49.972;8.568;2024-02-26T05:19:19;6.15;87.36
40059;SHT31;25763;49.972;8.568;2024-02-26T05:22:04;6.16;87.41
40059;SHT31;25763;49.972;8.568;2024-02-26T05:24:50;6.19;87.46
40059;SHT31;25763;49.972;8.568;2024-02-26T05:27:36;6.23;87.38
40059;SHT31;25763;49.972;8.568;2024-02-26T05:30:22;6.16;87.22
40059;SHT31;25763;49.972;8.568;2024-02-26T05:33:08;6.19;87.28
40059;SHT31;25763;49.972;8.568;2024-02-26T05:35:53;6.16;87.24
40059;SHT31;25763;49.972;8.568;2024-02-26T05:38:39;6.16;87.42
40059;SHT31;25763;49.972;8.568;2024-02-26T05:41:24;6.09;87.40
40059;SHT31;25763;49.972;8.568;2024-02-26T05:44:11;6.06;87.42
40059;SHT31;25763;49.972;8.568;2024-02-26T05:46:57;6.03;87.64
40059;SHT31;25763;49.972;8.568;2024-02-26T05:49:43;6.06;87.67
40059;SHT31;25763;49.972;8.568;2024-02-26T05:52:29;6.06;87.50
40059;SHT31;25763;49.972;8.568;2024-02-26T05:55:15;6.12;87.53
40059;SHT31;25763;49.972;8.568;2024-02-26T05:58:01;6.12;87.31
40059;SHT31;25763;49.972;8.568;2024-02-26T06:00:46;6.10;87.24
40059;SHT31;25763;49.972;8.568;2024-02-26T06:03:32;6.15;87.26
40059;SHT31;25763;49.972;8.568;2024-02-26T06:06:18;6.12;87.28
40059;SHT31;25763;49.972;8.568;2024-02-26T06:09:03;6.10;87.40
40059;SHT31;25763;49.972;8.568;2024-02-26T06:11:50;6.07;87.45
40059;SHT31;25763;49.972;8.568;2024-02-26T06:14:36;6.10;87.45
40059;SHT31;25763;49.972;8.568;2024-02-26T06:17:21;6.13;87.60
40059;SHT31;25763;49.972;8.568;2024-02-26T06:20:07;6.09;87.56
40059;SHT31;25763;49.972;8.568;2024-02-26T06:22:57;6.10;87.64
40059;SHT31;25763;49.972;8.568;2024-02-26T06:25:42;6.13;87.68
40059;SHT31;25763;49.972;8.568;2024-02-26T06:28:28;6.12;87.63
40059;SHT31;25763;49.972;8.568;2024-02-26T06:31:15;6.13;87.66
40059;SHT31;25763;49.972;8.568;2024-02-26T06:34:01;6.06;87.77
40059;SHT31;25763;49.972;8.568;2024-02-26T06:36:47;6.05;87.88
40059;SHT31;25763;49.972;8.568;2024-02-26T06:39:32;6.03;88.03
40059;SHT31;25763;49.972;8.568;2024-02-26T06:42:18;6.02;88.05
40059;SHT31;25763;49.972;8.568;2024-02-26T06:45:04;6.05;88.08
40059;SHT31;25763;49.972;8.568;2024-02-26T06:47:50;6.02;88.18
40059;SHT31;25763;49.972;8.568;2024-02-26T06:50:36;6.02;88.29
40059;SHT31;25763;49.972;8.568;2024-02-26T06:53:21;5.99;88.23
40059;SHT31;25763;49.972;8.568;2024-02-26T06:56:07;5.98;88.25
40059;SHT31;25763;49.972;8.568;2024-02-26T06:58:53;6.01;88.24
40059;SHT31;25763;49.972;8.568;2024-02-26T07:01:41;5.99;88.10
40059;SHT31;25763;49.972;8.568;2024-02-26T07:04:27;6.02;88.20
40059;SHT31;25763;49.972;8.568;2024-02-26T07:07:12;6.03;88.27
40059;SHT31;25763;49.972;8.568;2024-02-26T07:09:58;6.03;88.36
40059;SHT31;25763;49.972;8.568;2024-02-26T07:12:44;5.98;88.11
40059;SHT31;25763;49.972;8.568;2024-02-26T07:15:30;5.98;88.39
40059;SHT31;25763;49.972;8.568;2024-02-26T07:18:15;6.06;88.36
40059;SHT31;25763;49.972;8.568;2024-02-26T07:21:02;5.99;88.28
40059;SHT31;25763;49.972;8.568;2024-02-26T07:23:49;6.03;88.31
40059;SHT31;25763;49.972;8.568;2024-02-26T07:26:34;6.02;88.37
40059;SHT31;25763;49.972;8.568;2024-02-26T07:29:20;6.02;88.48
40059;SHT31;25763;49.972;8.568;2024-02-26T07:32:06;6.02;88.64
40059;SHT31;25763;49.972;8.568;2024-02-26T07:34:51;6.02;88.62
40059;SHT31;25763;49.972;8.568;2024-02-26T07:37:37;6.01;88.63
40059;SHT31;25763;49.972;8.568;2024-02-26T07:40:23;6.06;88.52
40059;SHT31;25763;49.972;8.568;2024-02-26T07:43:08;5.98;88.47
40059;SHT31;25763;49.972;8.568;2024-02-26T07:45:54;6.02;88.75
40059;SHT31;25763;49.972;8.568;2024-02-26T07:48:40;6.03;88.53
40059;SHT31;25763;49.972;8.568;2024-02-26T07:51:27;5.97;88.59
40059;SHT31;25763;49.972;8.568;2024-02-26T07:54:13;6.05;88.68
40059;SHT31;25763;49.972;8.568;2024-02-26T07:56:58;5.95;88.59
40059;SHT31;25763;49.972;8.568;2024-02-26T07:59:44;6.02;88.69
40059;SHT31;25763;49.972;8.568;2024-02-26T08:02:30;6.13;88.70
40059;SHT31;25763;49.972;8.568;2024-02-26T08:05:16;6.10;88.67
40059;SHT31;25763;49.972;8.568;2024-02-26T08:08:01;6.15;88.58
40059;SHT31;25763;49.972;8.568;2024-02-26T08:10:47;6.19;88.59
40059;SHT31;25763;49.972;8.568;2024-02-26T08:13:33;6.19;88.57
40059;SHT31;25763;49.972;8.568;2024-02-26T08:16:18;6.19;88.63
40059;SHT31;25763;49.972;8.568;2024-02-26T08:19:04;6.23;88.70
40059;SHT31;25763;49.972;8.568;2024-02-26T08:21:50;6.32;88.73
40059;SHT31;25763;49.972;8.568;2024-02-26T08:24:35;6.38;88.67
40059;SHT31;25763;49.972;8.568;2024-02-26T08:27:21;6.24;88.33
40059;SHT31;25763;49.972;8.568;2024-02-26T08:30:07;6.22;88.63
40059;SHT31;25763;49.972;8.568;2024-02-26T08:32:52;6.38;88.76
40059;SHT31;25763;49.972;8.568;2024-02-26T08:35:39;6.26;88.63
40059;SHT31;25763;49.972;8.568;2024-02-26T08:38:24;6.40;88.92
40059;SHT31;25763;49.972;8.568;2024-02-26T08:41:10;6.40;88.99
40059;SHT31;25763;49.972;8.568;2024-02-26T08:43:56;6.45;88.97
40059;SHT31;25763;49.972;8.568;2024-02-26T08:46:43;6.42;89.02
40059;SHT31;25763;49.972;8.568;2024-02-26T08:49:31;6.63;89.08
40059;SHT31;25763;49.972;8.568;2024-02-26T08:52:17;6.67;88.94
40059;SHT31;25763;49.972;8.568;2024-02-26T08:55:02;6.57;88.92
40059;SHT31;25763;49.972;8.568;2024-02-26T08:57:48;6.69;89.02
40059;SHT31;25763;49.972;8.568;2024-02-26T09:00:34;6.64;88.53
40059;SHT31;25763;49.972;8.568;2024-02-26T09:03:20;6.69;88.93
40059;SHT31;25763;49.972;8.568;2024-02-26T09:06:05;6.67;88.75
40059;SHT31;25763;49.972;8.568;2024-02-26T09:08:52;6.69;88.99
40059;SHT31;25763;49.972;8.568;2024-02-26T09:11:37;6.64;88.99
40059;SHT31;25763;49.972;8.568;2024-02-26T09:14:23;6.65;89.03
40059;SHT31;25763;49.972;8.568;2024-02-26T09:17:09;6.68;88.93
40059;SHT31;25763;49.972;8.568;2024-02-26T09:19:54;6.64;88.93
40059;SHT31;25763;49.972;8.568;2024-02-26T09:22:41;6.61;88.98
40059;SHT31;25763;49.972;8.568;2024-02-26T09:25:28;6.76;89.01
40059;SHT31;25763;49.972;8.568;2024-02-26T09:28:13;6.83;88.97
40059;SHT31;25763;49.972;8.568;2024-02-26T09:31:03;6.92;89.04
40059;SHT31;25763;49.972;8.568;2024-02-26T09:33:49;7.09;88.84
40059;SHT31;25763;49.972;8.568;2024-02-26T09:36:35;6.97;88.57
40059;SHT31;25763;49.972;8.568;2024-02-26T09:39:20;6.99;88.72
40059;SHT31;25763;49.972;8.568;2024-02-26T09:42:09;6.99;88.63
40059;SHT31;25763;49.972;8.568;2024-02-26T09:44:55;7.04;88.38
40059;SHT31;25763;49.972;8.568;2024-02-26T09:47:42;7.21;88.36
40059;SHT31;25763;49.972;8.568;2024-02-26T09:50:28;7.30;88.18
40059;SHT31;25763;49.972;8.568;2024-02-26T09:53:14;7.41;87.87
40059;SHT31;25763;49.972;8.568;2024-02-26T09:56:00;7.53;87.75
40059;SHT31;25763;49.972;8.568;2024-02-26T09:58:46;7.59;87.58
40059;SHT31;25763;49.972;8.568;2024-02-26T10:01:34;7.55;87.61
40059;SHT31;25763;49.972;8.568;2024-02-26T10:04:21;7.83;87.65
40059;SHT31;25763;49.972;8.568;2024-02-26T10:07:11;7.73;86.71
40059;SHT31;25763;49.972;8.568;2024-02-26T10:09:57;7.82;86.62
40059;SHT31;25763;49.972;8.568;2024-02-26T10:12:42;7.83;86.67
40059;SHT31;25763;49.972;8.568;2024-02-26T10:15:28;7.70;86.11
40059;SHT31;25763;49.972;8.568;2024-02-26T10:18:14;7.87;86.81
40059;SHT31;25763;49.972;8.568;2024-02-26T10:21:01;7.83;86.12
40059;SHT31;25763;49.972;8.568;2024-02-26T10:23:47;7.90;85.68
40059;SHT31;25763;49.972;8.568;2024-02-26T10:26:33;7.93;85.39
40059;SHT31;25763;49.972;8.568;2024-02-26T10:29:19;8.18;85.38
40059;SHT31;25763;49.972;8.568;2024-02-26T10:32:05;8.21;85.83
40059;SHT31;25763;49.972;8.568;2024-02-26T10:34:55;8.42;85.46
40059;SHT31;25763;49.972;8.568;2024-02-26T10:37:41;8.63;85.92
40059;SHT31;25763;49.972;8.568;2024-02-26T10:40:27;8.84;85.49
40059;SHT31;25763;49.972;8.568;2024-02-26T10:43:12;8.94;84.18
40059;SHT31;25763;49.972;8.568;2024-02-26T10:46:00;9.02;83.64
40059;SHT31;25763;49.972;8.568;2024-02-26T10:48:50;9.12;83.72
40059;SHT31;25763;49.972;8.568;2024-02-26T10:51:37;9.33;83.32
40059;SHT31;25763;49.972;8.568;2024-02-26T10:54:26;9.41;82.80
40059;SHT31;25763;49.972;8.568;2024-02-26T10:57:15;9.18;82.26
40059;SHT31;25763;49.972;8.568;2024-02-26T11:00:01;9.32;82.43
40059;SHT31;25763;49.972;8.568;2024-02-26T11:02:51;9.34;82.91
40059;SHT31;25763;49.972;8.568;2024-02-26T11:05:36;9.24;82.75
40059;SHT31;25763;49.972;8.568;2024-02-26T11:08:23;9.32;82.72
40059;SHT31;25763;49.972;8.568;2024-02-26T11:11:10;9.20;82.82
40059;SHT31;25763;49.972;8.568;2024-02-26T11:14:01;9.09;82.27
40059;SHT31;25763;49.972;8.568;2024-02-26T11:16:49;9.32;82.07
40059;SHT31;25763;49.972;8.568;2024-02-26T11:19:35;9.48;82.02
40059;SHT31;25763;49.972;8.568;2024-02-26T11:22:21;9.46;82.27
40059;SHT31;25763;49.972;8.568;2024-02-26T11:25:11;9.48;81.66
40059;SHT31;25763;49.972;8.568;2024-02-26T11:28:01;9.59;81.39
40059;SHT31;25763;49.972;8.568;2024-02-26T11:30:49;9.55;81.64
40059;SHT31;25763;49.972;8.568;2024-02-26T11:33:35;9.91;81.54
40059;SHT31;25763;49.972;8.568;2024-02-26T11:36:23;9.89;81.48
40059;SHT31;25763;49.972;8.568;2024-02-26T11:39:11;10.03;81.22
40059;SHT31;25763;49.972;8.568;2024-02-26T11:42:05;9.79;80.25
40059;SHT31;25763;49.972;8.568;2024-02-26T11:44:50;9.68;81.04
40059;SHT31;25763;49.972;8.568;2024-02-26T11:47:36;9.61;81.31
40059;SHT31;25763;49.972;8.568;2024-02-26T11:50:35;9.67;81.18
40059;SHT31;25763;49.972;8.568;2024-02-26T11:59:11;10.20;79.76
40059;SHT31;25763;49.972;8.568;2024-02-26T12:01:58;9.99;80.24
40059;SHT31;25763;49.972;8.568;2024-02-26T12:04:44;10.30;79.35
40059;SHT31;25763;49.972;8.568;2024-02-26T12:07:29;10.49;79.06
40059;SHT31;25763;49.972;8.568;2024-02-26T12:13:11;10.10;78.66
40059;SHT31;25763;49.972;8.568;2024-02-26T12:16:00;10.00;78.90
40059;SHT31;25763;49.972;8.568;2024-02-26T12:18:46;9.83;80.23
40059;SHT31;25763;49.972;8.568;2024-02-26T12:21:36;9.83;79.52
40059;SHT31;25763;49.972;8.568;2024-02-26T12:24:22;9.85;79.61
40059;SHT31;25763;49.972;8.568;2024-02-26T12:27:08;9.86;79.25
40059;SHT31;25763;49.972;8.568;2024-02-26T12:29:53;10.09;79.52
40059;SHT31;25763;49.972;8.568;2024-02-26T12:32:39;10.31;79.27
40059;SHT31;25763;49.972;8.568;2024-02-26T12:35:25;10.00;78.48
40059;SHT31;25763;49.972;8.568;2024-02-26T12:38:12;9.95;78.45
40059;SHT31;25763;49.972;8.568;2024-02-26T12:40:57;10.03;79.03
40059;SHT31;25763;49.972;8.568;2024-02-26T12:43:43;9.81;78.90
40059;SHT31;25763;49.972;8.568;2024-02-26T12:46:29;9.77;79.28
40059;SHT31;25763;49.972;8.568;2024-02-26T12:49:16;9.82;79.63
40059;SHT31;25763;49.972;8.568;2024-02-26T12:52:03;9.89;79.34
40059;SHT31;25763;49.972;8.568;2024-02-26T12:54:49;10.03;79.15
40059;SHT31;25763;49.972;8.568;2024-02-26T12:57:37;10.03;78.93
40059;SHT31;25763;49.972;8.568;2024-02-26T13:00:26;10.20;79.12
40059;SHT31;25763;49.972;8.568;2024-02-26T13:03:12;10.17;78.45
40059;SHT31;25763;49.972;8.568;2024-02-26T13:05:58;10.12;78.02
40059;SHT31;25763;49.972;8.568;2024-02-26T13:08:45;10.30;77.77
40059;SHT31;25763;49.972;8.568;2024-02-26T13:11:32;10.46;77.46
40059;SHT31;25763;49.972;8.568;2024-02-26T13:14:22;10.69;76.60
40059;SHT31;25763;49.972;8.568;2024-02-26T13:17:08;10.79;76.38
40059;SHT31;25763;49.972;8.568;2024-02-26T13:19:54;10.80;76.31
40059;SHT31;25763;49.972;8.568;2024-02-26T13:22:39;10.90;76.34
40059;SHT31;25763;49.972;8.568;2024-02-26T13:25:25;10.94;76.29
40059;SHT31;25763;49.972;8.568;2024-02-26T13:28:16;10.93;76.16
40059;SHT31;25763;49.972;8.568;2024-02-26T13:31:02;10.89;75.98
40059;SHT31;25763;49.972;8.568;2024-02-26T13:33:49;10.86;75.69
40059;SHT31;25763;49.972;8.568;2024-02-26T13:36:35;10.90;76.19
40059;SHT31;25763;49.972;8.568;2024-02-26T13:39:25;11.03;75.41
40059;SHT31;25763;49.972;8.568;2024-02-26T13:42:10;10.97;75.22
40059;SHT31;25763;49.972;8.568;2024-02-26T13:44:57;11.17;74.77
40059;SHT31;25763;49.972;8.568;2024-02-26T13:47:42;11.34;74.45
40059;SHT31;25763;49.972;8.568;2024-02-26T13:50:29;11.20;74.85
40059;SHT31;25763;49.972;8.568;2024-02-26T13:53:14;11.15;74.83
40059;SHT31;25763;49.972;8.568;2024-02-26T13:56:00;11.11;75.02
40059;SHT31;25763;49.972;8.568;2024-02-26T13:58:46;11.38;75.13
40059;SHT31;25763;49.972;8.568;2024-02-26T14:01:32;11.56;75.15
40059;SHT31;25763;49.972;8.568;2024-02-26T14:04:18;11.55;74.73
40059;SHT31;25763;49.972;8.568;2024-02-26T14:07:04;11.59;74.88
40059;SHT31;25763;49.972;8.568;2024-02-26T14:09:50;11.42;74.63
40059;SHT31;25763;49.972;8.568;2024-02-26T14:12:37;11.27;74.50
40059;SHT31;25763;49.972;8.568;2024-02-26T14:15:23;11.32;75.19
40059;SHT31;25763;49.972;8.568;2024-02-26T14:18:09;11.15;75.19
40059;SHT31;25763;49.972;8.568;2024-02-26T14:20:55;11.17;75.36
40059;SHT31;25763;49.972;8.568;2024-02-26T14:23:41;10.92;75.97
40059;SHT31;25763;49.972;8.568;2024-02-26T14:26:28;11.06;76.45
40059;SHT31;25763;49.972;8.568;2024-02-26T14:29:14;10.94;76.67
40059;SHT31;25763;49.972;8.568;2024-02-26T14:32:00;10.83;76.85
40059;SHT31;25763;49.972;8.568;2024-02-26T14:34:45;10.73;77.08
40059;SHT31;25763;49.972;8.568;2024-02-26T14:37:31;10.67;77.13
40059;SHT31;25763;49.972;8.568;2024-02-26T14:40:17;10.71;77.51
40059;SHT31;25763;49.972;8.568;2024-02-26T14:43:03;10.71;77.40
40059;SHT31;25763;49.972;8.568;2024-02-26T14:45:50;10.69;77.43
40059;SHT31;25763;49.972;8.568;2024-02-26T14:48:36;10.86;77.48
40059;SHT31;25763;49.972;8.568;2024-02-26T14:51:22;10.80;76.84
40059;SHT31;25763;49.972;8.568;2024-02-26T14:54:08;10.79;77.16
40059;SHT31;25763;49.972;8.568;2024-02-26T14:56:53;10.71;77.05
40059;SHT31;25763;49.972;8.568;2024-02-26T14:59:39;10.73;77.12
40059;SHT31;25763;49.972;8.568;2024-02-26T15:02:24;10.72;77.19
40059;SHT31;25763;49.972;8.568;2024-02-26T15:05:10;10.72;77.16
40059;SHT31;25763;49.972;8.568;2024-02-26T15:07:56;10.82;76.85
40059;SHT31;25763;49.972;8.568;2024-02-26T15:10:42;10.94;76.59
40059;SHT31;25763;49.972;8.568;2024-02-26T15:13:33;10.97;75.98
40059;SHT31;25763;49.972;8.568;2024-02-26T15:16:20;10.72;76.40
40059;SHT31;25763;49.972;8.568;2024-02-26T15:19:06;10.90;76.74
40059;SHT31;25763;49.972;8.568;2024-02-26T15:21:54;10.92;76.42
40059;SHT31;25763;49.972;8.568;2024-02-26T15:24:40;10.87;76.38
40059;SHT31;25763;49.972;8.568;2024-02-26T15:27:28;10.90;76.23
40059;SHT31;25763;49.972;8.568;2024-02-26T15:30:14;10.86;76.57
40059;SHT31;25763;49.972;8.568;2024-02-26T15:33:00;10.92;76.43
40059;SHT31;25763;49.972;8.568;2024-02-26T15:35:45;10.86;76.37
40059;SHT31;25763;49.972;8.568;2024-02-26T15:38:31;10.89;76.46
40059;SHT31;25763;49.972;8.568;2024-02-26T15:41:17;10.85;76.58
40059;SHT31;25763;49.972;8.568;2024-02-26T15:44:02;10.79;76.54
40059;SHT31;25763;49.972;8.568;2024-02-26T15:46:48;10.90;76.83
40059;SHT31;25763;49.972;8.568;2024-02-26T15:49:34;10.86;76.69
40059;SHT31;25763;49.972;8.568;2024-02-26T15:52:19;10.83;76.56
40059;SHT31;25763;49.972;8.568;2024-02-26T15:55:05;10.89;76.36
40059;SHT31;25763;49.972;8.568;2024-02-26T15:57:51;10.79;76.19
40059;SHT31;25763;49.972;8.568;2024-02-26T16:00:40;10.85;76.53
40059;SHT31;25763;49.972;8.568;2024-02-26T16:03:27;10.77;76.52
40059;SHT31;25763;49.972;8.568;2024-02-26T16:06:43;10.73;76.58
40059;SHT31;25763;49.972;8.568;2024-02-26T16:09:29;10.72;76.69
40059;SHT31;25763;49.972;8.568;2024-02-26T16:12:21;10.72;76.51
40059;SHT31;25763;49.972;8.568;2024-02-26T16:15:09;10.76;76.63
40059;SHT31;25763;49.972;8.568;2024-02-26T16:17:55;10.79;76.62
40059;SHT31;25763;49.972;8.568;2024-02-26T16:20:43;10.75;76.39
40059;SHT31;25763;49.972;8.568;2024-02-26T16:23:29;10.85;76.64
40059;SHT31;25763;49.972;8.568;2024-02-26T16:26:15;10.77;76.25
40059;SHT31;25763;49.972;8.568;2024-02-26T16:29:00;10.73;76.24
40059;SHT31;25763;49.972;8.568;2024-02-26T16:31:46;10.72;76.01
40059;SHT31;25763;49.972;8.568;2024-02-26T16:34:32;10.69;76.25
40059;SHT31;25763;49.972;8.568;2024-02-26T16:37:17;10.62;76.26
40059;SHT31;25763;49.972;8.568;2024-02-26T16:40:04;10.58;76.28
40059;SHT31;25763;49.972;8.568;2024-02-26T16:42:50;10.57;76.52
40059;SHT31;25763;49.972;8.568;2024-02-26T16:45:35;10.58;76.79
40059;SHT31;25763;49.972;8.568;2024-02-26T16:48:21;10.64;76.81
40059;SHT31;25763;49.972;8.568;2024-02-26T16:51:07;10.55;77.02
40059;SHT31;25763;49.972;8.568;2024-02-26T16:53:52;10.52;77.11
40059;SHT31;25763;49.972;8.568;2024-02-26T16:56:38;10.48;77.10
40059;SHT31;25763;49.972;8.568;2024-02-26T16:59:24;10.44;77.16
40059;SHT31;25763;49.972;8.568;2024-02-26T17:02:13;10.42;77.37
40059;SHT31;25763;49.972;8.568;2024-02-26T17:04:59;10.40;77.27
40059;SHT31;25763;49.972;8.568;2024-02-26T17:07:45;10.35;77.45
40059;SHT31;25763;49.972;8.568;2024-02-26T17:10:31;10.33;77.37
40059;SHT31;25763;49.972;8.568;2024-02-26T17:13:17;10.28;77.56
40059;SHT31;25763;49.972;8.568;2024-02-26T17:16:04;10.27;77.56
40059;SHT31;25763;49.972;8.568;2024-02-26T17:18:49;10.24;77.69
40059;SHT31;25763;49.972;8.568;2024-02-26T17:21:35;10.21;77.75
40059;SHT31;25763;49.972;8.568;2024-02-26T17:24:21;10.20;77.76
40059;SHT31;25763;49.972;8.568;2024-02-26T17:27:07;10.18;77.40
40059;SHT31;25763;49.972;8.568;2024-02-26T17:29:52;10.18;77.11
40059;SHT31;25763;49.972;8.568;2024-02-26T17:32:38;10.21;76.96
40059;SHT31;25763;49.972;8.568;2024-02-26T17:35:24;10.24;77.01
40059;SHT31;25763;49.972;8.568;2024-02-26T17:38:10;10.24;76.92
40059;SHT31;25763;49.972;8.568;2024-02-26T17:40:55;10.24;76.98
40059;SHT31;25763;49.972;8.568;2024-02-26T17:43:41;10.21;77.27
40059;SHT31;25763;49.972;8.568;2024-02-26T17:46:27;10.18;77.28
40059;SHT31;25763;49.972;8.568;2024-02-26T17:49:13;10.20;77.48
40059;SHT31;25763;49.972;8.568;2024-02-26T17:51:59;10.17;77.72